sensor_id;sensor_type;location;lat;lon;timestamp;temperature;humidity
45137;DHT22;30894;51.740;19.498;2023-12-29T00:01:12;1.90;99.90
45137;DHT22;30894;51.740;19.498;2023-12-29T00:03:40;1.90;99.90
45137;DHT22;30894;51.740;19.498;2023-12-29T00:06:06;1.90;99.90
45137;DHT22;30894;51.740;19.498;2023-12-29T00:08:33;1.90;99.90
45137;DHT22;30894;51.740;19.498;2023-12-29T00:10:59;1.90;99.90
45137;DHT22;30894;51.740;19.498;2023-12-29T00:13:25;2.50;99.90
45137;DHT22;30894;51.740;19.498;2023-12-29T00:15:52;1.90;99.90
45137;DHT22;30894;51.740;19.498;2023-12-29T00:18:22;1.90;99.90
45137;DHT22;30894;51.740;19.498;2023-12-29T00:20:49;1.80;99.90
45137;DHT22;30894;51.740;19.498;2023-12-29T00:23:16;2.40;99.90
45137;DHT22;30894;51.740;19.498;2023-12-29T00:25:42;1.80;99.90
45137;DHT22;30894;51.740;19.498;2023-12-29T00:28:09;1.80;99.90
45137;DHT22;30894;51.740;19.498;2023-12-29T00:30:38;1.80;99.90
45137;DHT22;30894;51.740;19.498;2023-12-29T00:33:06;1.70;99.90
45137;DHT22;30894;51.740;19.498;2023-12-29T00:35:37;1.70;99.90
45137;DHT22;30894;51.740;19.498;2023-12-29T00:38:04;1.70;99.90
45137;DHT22;30894;51.740;19.498;2023-12-29T00:40:35;1.70;99.90
45137;DHT22;30894;51.740;19.498;2023-12-29T00:43:04;1.60;99.90
45137;DHT22;30894;51.740;19.498;2023-12-29T00:45:31;1.60;99.90
45137;DHT22;30894;51.740;19.498;2023-12-29T00:48:02;1.60;99.90
45137;DHT22;30894;51.740;19.498;2023-12-29T00:50:29;1.60;99.90
45137;DHT22;30894;51.740;19.498;2023-12-29T00:52:56;1.60;99.90
45137;DHT22;30894;51.740;19.498;2023-12-29T00:55:22;1.60;99.90
45137;DHT22;30894;51.740;19.498;2023-12-29T00:57:51;1.60;99.90
45137;DHT22;30894;51.740;19.498;2023-12-29T01:00:17;1.60;99.90
45137;DHT22;30894;51.740;19.498;2023-12-29T01:02:44;1.50;99.90
45137;DHT22;30894;51.740;19.498;2023-12-29T01:05:17;1.60;99.90
45137;DHT22;30894;51.740;19.498;2023-12-29T01:07:43;1.40;99.90
45137;DHT22;30894;51.740;19.498;2023-12-29T01:10:11;1.00;99.90
45137;DHT22;30894;51.740;19.498;2023-12-29T01:12:38;2.00;99.90
45137;DHT22;30894;51.740;19.498;2023-12-29T01:15:07;1.40;99.90
45137;DHT22;30894;51.740;19.498;2023-12-29T01:17:38;1.40;99.90
45137;DHT22;30894;51.740;19.498;2023-12-29T01:20:10;1.30;99.90
45137;DHT22;30894;51.740;19.498;2023-12-29T01:22:36;1.40;99.90
45137;DHT22;30894;51.740;19.498;2023-12-29T01:25:06;1.40;99.90
45137;DHT22;30894;51.740;19.498;2023-12-29T01:27:33;1.40;99.90
45137;DHT22;30894;51.740;19.498;2023-12-29T01:30:02;1.40;99.90
45137;DHT22;30894;51.740;19.498;2023-12-29T01:32:32;1.40;99.90
45137;DHT22;30894;51.740;19.498;2023-12-29T01:34:58;1.40;99.90
45137;DHT22;30894;51.740;19.498;2023-12-29T01:37:26;1.30;99.90
45137;DHT22;30894;51.740;19.498;2023-12-29T01:39:53;1.30;99.90
45137;DHT22;30894;51.740;19.498;2023-12-29T01:42:20;1.30;99.90
45137;DHT22;30894;51.740;19.498;2023-12-29T01:44:48;1.30;99.90
45137;DHT22;30894;51.740;19.498;2023-12-29T01:47:20;1.30;99.90
45137;DHT22;30894;51.740;19.498;2023-12-29T01:49:48;1.20;99.90
45137;DHT22;30894;51.740;19.498;2023-12-29T01:52:19;1.90;99.90
45137;DHT22;30894;51.740;19.498;2023-12-29T01:54:49;1.20;99.90
45137;DHT22;30894;51.740;19.498;2023-12-29T01:57:19;1.20;99.90
45137;DHT22;30894;51.740;19.498;2023-12-29T01:59:47;1.20;99.90
45137;DHT22;30894;51.740;19.498;2023-12-29T02:02:15;1.10;99.90
45137;DHT22;30894;51.740;19.498;2023-12-29T02:04:41;1.20;99.90
45137;DHT22;30894;51.740;19.498;2023-12-29T02:07:08;1.10;99.90
45137;DHT22;30894;51.740;19.498;2023-12-29T02:09:34;1.10;99.90
45137;DHT22;30894;51.740;19.498;2023-12-29T02:12:02;1.10;99.90
45137;DHT22;30894;51.740;19.498;2023-12-29T02:14:28;1.10;99.90
45137;DHT22;30894;51.740;19.498;2023-12-29T02:17:07;1.10;99.90
45137;DHT22;30894;51.740;19.498;2023-12-29T02:19:41;1.10;99.90
45137;DHT22;30894;51.740;19.498;2023-12-29T02:22:13;1.10;99.90
45137;DHT22;30894;51.740;19.498;2023-12-29T02:24:39;1.20;99.90
45137;DHT22;30894;51.740;19.498;2023-12-29T02:30:29;1.10;99.90
45137;DHT22;30894;51.740;19.498;2023-12-29T02:33:10;1.10;99.90
45137;DHT22;30894;51.740;19.498;2023-12-29T02:35:43;1.00;99.90
45137;DHT22;30894;51.740;19.498;2023-12-29T02:38:11;1.00;99.90
45137;DHT22;30894;51.740;19.498;2023-12-29T02:40:38;1.00;99.90
45137;DHT22;30894;51.740;19.498;2023-12-29T02:43:05;1.00;99.90
45137;DHT22;30894;51.740;19.498;2023-12-29T02:45:31;1.00;99.90
45137;DHT22;30894;51.740;19.498;2023-12-29T02:47:58;1.00;99.90
45137;DHT22;30894;51.740;19.498;2023-12-29T02:50:28;1.00;99.90
45137;DHT22;30894;51.740;19.498;2023-12-29T02:52:54;1.00;99.90
45137;DHT22;30894;51.740;19.498;2023-12-29T02:55:21;1.00;99.90
45137;DHT22;30894;51.740;19.498;2023-12-29T02:57:48;1.00;99.90
45137;DHT22;30894;51.740;19.498;2023-12-29T03:00:17;1.00;99.90
45137;DHT22;30894;51.740;19.498;2023-12-29T03:02:53;1.00;99.90
45137;DHT22;30894;51.740;19.498;2023-12-29T03:05:20;1.00;99.90
45137;DHT22;30894;51.740;19.498;2023-12-29T03:07:50;1.00;99.90
45137;DHT22;30894;51.740;19.498;2023-12-29T03:10:16;1.00;99.90
45137;DHT22;30894;51.740;19.498;2023-12-29T03:12:42;1.00;99.90
45137;DHT22;30894;51.740;19.498;2023-12-29T03:15:09;1.10;99.90
45137;DHT22;30894;51.740;19.498;2023-12-29T03:17:37;1.10;99.90
45137;DHT22;30894;51.740;19.498;2023-12-29T03:20:05;1.10;99.90
45137;DHT22;30894;51.740;19.498;2023-12-29T03:22:34;1.10;99.90
45137;DHT22;30894;51.740;19.498;2023-12-29T03:25:00;1.10;99.90
45137;DHT22;30894;51.740;19.498;2023-12-29T03:27:26;1.10;99.90
45137;DHT22;30894;51.740;19.498;2023-12-29T03:29:56;1.10;99.90
45137;DHT22;30894;51.740;19.498;2023-12-29T03:32:22;1.10;99.90
45137;DHT22;30894;51.740;19.498;2023-12-29T03:34:49;1.40;99.90
45137;DHT22;30894;51.740;19.498;2023-12-29T03:37:18;1.50;99.90
45137;DHT22;30894;51.740;19.498;2023-12-29T03:39:44;1.70;99.90
45137;DHT22;30894;51.740;19.498;2023-12-29T03:42:11;1.90;99.90
45137;DHT22;30894;51.740;19.498;2023-12-29T03:44:37;1.90;99.90
45137;DHT22;30894;51.740;19.498;2023-12-29T03:47:04;2.10;99.90
45137;DHT22;30894;51.740;19.498;2023-12-29T03:49:30;2.10;99.90
45137;DHT22;30894;51.740;19.498;2023-12-29T03:51:57;2.20;99.90
45137;DHT22;30894;51.740;19.498;2023-12-29T03:54:23;2.30;99.90
45137;DHT22;30894;51.740;19.498;2023-12-29T03:56:50;2.30;99.90
45137;DHT22;30894;51.740;19.498;2023-12-29T03:59:16;2.40;99.90
45137;DHT22;30894;51.740;19.498;2023-12-29T04:01:43;2.50;99.90
45137;DHT22;30894;51.740;19.498;2023-12-29T04:04:09;2.60;99.90
45137;DHT22;30894;51.740;19.498;2023-12-29T04:06:36;2.80;99.90
45137;DHT22;30894;51.740;19.498;2023-12-29T04:09:02;2.80;99.90
45137;DHT22;30894;51.740;19.498;2023-12-29T04:11:29;2.90;99.90
45137;DHT22;30894;51.740;19.498;2023-12-29T04:13:56;2.90;99.90
45137;DHT22;30894;51.740;19.498;2023-12-29T04:16:22;2.90;99.90
45137;DHT22;30894;51.740;19.498;2023-12-29T04:18:48;2.90;99.90
45137;DHT22;30894;51.740;19.498;2023-12-29T04:21:15;2.90;99.90
45137;DHT22;30894;51.740;19.498;2023-12-29T04:23:41;2.80;99.90
45137;DHT22;30894;51.740;19.498;2023-12-29T04:26:08;2.80;99.90
45137;DHT22;30894;51.740;19.498;2023-12-29T04:28:34;2.80;99.90
45137;DHT22;30894;51.740;19.498;2023-12-29T04:31:01;3.00;99.90
45137;DHT22;30894;51.740;19.498;2023-12-29T04:33:27;2.70;99.90
45137;DHT22;30894;51.740;19.498;2023-12-29T04:35:54;2.70;99.90
45137;DHT22;30894;51.740;19.498;2023-12-29T04:38:20;2.60;99.90
45137;DHT22;30894;51.740;19.498;2023-12-29T04:40:47;2.50;99.90
45137;DHT22;30894;51.740;19.498;2023-12-29T04:43:18;2.90;99.90
45137;DHT22;30894;51.740;19.498;2023-12-29T04:45:44;2.40;99.90
45137;DHT22;30894;51.740;19.498;2023-12-29T04:48:11;2.80;99.90
45137;DHT22;30894;51.740;19.498;2023-12-29T04:50:38;2.20;99.90
45137;DHT22;30894;51.740;19.498;2023-12-29T04:53:06;2.20;99.90
45137;DHT22;30894;51.740;19.498;2023-12-29T04:55:32;2.10;99.90
45137;DHT22;30894;51.740;19.498;2023-12-29T04:57:58;2.00;99.90
45137;DHT22;30894;51.740;19.498;2023-12-29T05:00:25;2.00;99.90
45137;DHT22;30894;51.740;19.498;2023-12-29T05:02:53;2.00;99.90
45137;DHT22;30894;51.740;19.498;2023-12-29T05:05:20;2.00;99.90
45137;DHT22;30894;51.740;19.498;2023-12-29T05:07:48;2.00;99.90
45137;DHT22;30894;51.740;19.498;2023-12-29T05:10:15;1.90;99.90
45137;DHT22;30894;51.740;19.498;2023-12-29T05:12:41;1.90;99.90
45137;DHT22;30894;51.740;19.498;2023-12-29T05:15:08;1.90;99.90
45137;DHT22;30894;51.740;19.498;2023-12-29T05:17:38;1.90;99.90
45137;DHT22;30894;51.740;19.498;2023-12-29T05:20:08;2.40;99.90
45137;DHT22;30894;51.740;19.498;2023-12-29T05:22:35;1.80;99.90
45137;DHT22;30894;51.740;19.498;2023-12-29T05:25:02;1.80;99.90
45137;DHT22;30894;51.740;19.498;2023-12-29T05:27:29;1.80;99.90
45137;DHT22;30894;51.740;19.498;2023-12-29T05:29:58;1.80;99.90
45137;DHT22;30894;51.740;19.498;2023-12-29T05:32:24;1.80;99.90
45137;DHT22;30894;51.740;19.498;2023-12-29T05:34:51;1.80;99.90
45137;DHT22;30894;51.740;19.498;2023-12-29T05:37:20;1.80;99.90
45137;DHT22;30894;51.740;19.498;2023-12-29T05:39:47;1.90;99.90
45137;DHT22;30894;51.740;19.498;2023-12-29T05:42:13;1.90;99.90
45137;DHT22;30894;51.740;19.498;2023-12-29T05:44:40;1.70;99.90
45137;DHT22;30894;51.740;19.498;2023-12-29T05:47:12;1.70;99.90
45137;DHT22;30894;51.740;19.498;2023-12-29T05:49:38;1.70;99.90
45137;DHT22;30894;51.740;19.498;2023-12-29T05:52:07;0.90;99.90
45137;DHT22;30894;51.740;19.498;2023-12-29T05:54:34;1.90;99.90
45137;DHT22;30894;51.740;19.498;2023-12-29T05:57:00;1.90;99.90
45137;DHT22;30894;51.740;19.498;2023-12-29T05:59:27;1.90;99.90
45137;DHT22;30894;51.740;19.498;2023-12-29T06:01:53;1.90;99.90
45137;DHT22;30894;51.740;19.498;2023-12-29T06:04:19;1.90;99.90
45137;DHT22;30894;51.740;19.498;2023-12-29T06:06:46;2.30;99.90
45137;DHT22;30894;51.740;19.498;2023-12-29T06:09:13;2.20;99.90
45137;DHT22;30894;51.740;19.498;2023-12-29T06:11:39;2.00;99.90
45137;DHT22;30894;51.740;19.498;2023-12-29T06:14:05;3.10;99.90
45137;DHT22;30894;51.740;19.498;2023-12-29T06:16:31;2.90;99.90
45137;DHT22;30894;51.740;19.498;2023-12-29T06:18:58;2.70;99.90
45137;DHT22;30894;51.740;19.498;2023-12-29T06:21:24;2.80;99.90
45137;DHT22;30894;51.740;19.498;2023-12-29T06:23:51;2.90;99.90
45137;DHT22;30894;51.740;19.498;2023-12-29T06:26:20;3.00;99.90
45137;DHT22;30894;51.740;19.498;2023-12-29T06:28:49;3.10;99.90
45137;DHT22;30894;51.740;19.498;2023-12-29T06:31:18;3.10;99.90
45137;DHT22;30894;51.740;19.498;2023-12-29T06:33:45;3.20;99.90
45137;DHT22;30894;51.740;19.498;2023-12-29T06:36:12;3.30;99.90
45137;DHT22;30894;51.740;19.498;2023-12-29T06:38:38;3.30;99.90
45137;DHT22;30894;51.740;19.498;2023-12-29T06:41:05;3.30;99.90
45137;DHT22;30894;51.740;19.498;2023-12-29T06:43:32;3.30;99.90
45137;DHT22;30894;51.740;19.498;2023-12-29T06:45:59;3.30;99.90
45137;DHT22;30894;51.740;19.498;2023-12-29T06:48:26;3.40;99.90
45137;DHT22;30894;51.740;19.498;2023-12-29T06:50:52;3.40;99.90
45137;DHT22;30894;51.740;19.498;2023-12-29T06:53:19;3.40;99.90
45137;DHT22;30894;51.740;19.498;2023-12-29T06:55:45;3.40;99.90
45137;DHT22;30894;51.740;19.498;2023-12-29T06:58:13;3.60;99.90
45137;DHT22;30894;51.740;19.498;2023-12-29T07:00:41;3.50;99.90
45137;DHT22;30894;51.740;19.498;2023-12-29T07:03:08;3.60;99.90
45137;DHT22;30894;51.740;19.498;2023-12-29T07:05:34;3.60;99.90
45137;DHT22;30894;51.740;19.498;2023-12-29T07:08:02;3.60;99.90
45137;DHT22;30894;51.740;19.498;2023-12-29T07:10:31;3.70;99.90
45137;DHT22;30894;51.740;19.498;2023-12-29T07:12:58;3.70;99.90
45137;DHT22;30894;51.740;19.498;2023-12-29T07:15:24;3.60;99.90
45137;DHT22;30894;51.740;19.498;2023-12-29T07:17:50;3.80;99.90
45137;DHT22;30894;51.740;19.498;2023-12-29T07:20:16;3.80;99.90
45137;DHT22;30894;51.740;19.498;2023-12-29T07:22:43;3.80;99.90
45137;DHT22;30894;51.740;19.498;2023-12-29T07:25:09;3.80;99.90
45137;DHT22;30894;51.740;19.498;2023-12-29T07:27:37;3.80;99.90
45137;DHT22;30894;51.740;19.498;2023-12-29T07:30:03;3.70;99.90
45137;DHT22;30894;51.740;19.498;2023-12-29T07:32:31;3.60;99.90
45137;DHT22;30894;51.740;19.498;2023-12-29T07:35:00;3.60;99.90
45137;DHT22;30894;51.740;19.498;2023-12-29T07:37:27;3.60;99.90
45137;DHT22;30894;51.740;19.498;2023-12-29T07:39:54;4.10;99.90
45137;DHT22;30894;51.740;19.498;2023-12-29T07:42:20;3.60;99.90
45137;DHT22;30894;51.740;19.498;2023-12-29T07:44:47;3.50;99.90
45137;DHT22;30894;51.740;19.498;2023-12-29T07:47:14;3.50;99.90
45137;DHT22;30894;51.740;19.498;2023-12-29T07:49:41;3.50;99.90
45137;DHT22;30894;51.740;19.498;2023-12-29T07:52:09;3.60;99.90
45137;DHT22;30894;51.740;19.498;2023-12-29T07:54:37;3.50;99.90
45137;DHT22;30894;51.740;19.498;2023-12-29T07:57:04;3.50;99.90
45137;DHT22;30894;51.740;19.498;2023-12-29T07:59:37;3.60;99.90
45137;DHT22;30894;51.740;19.498;2023-12-29T08:02:05;3.60;99.90
45137;DHT22;30894;51.740;19.498;2023-12-29T08:04:32;3.90;99.90
45137;DHT22;30894;51.740;19.498;2023-12-29T08:07:04;4.20;99.90
45137;DHT22;30894;51.740;19.498;2023-12-29T08:09:32;3.70;99.90
45137;DHT22;30894;51.740;19.498;2023-12-29T08:12:01;3.70;99.90
45137;DHT22;30894;51.740;19.498;2023-12-29T08:14:27;3.80;99.90
45137;DHT22;30894;51.740;19.498;2023-12-29T08:16:54;3.80;99.90
45137;DHT22;30894;51.740;19.498;2023-12-29T08:19:22;4.20;99.90
45137;DHT22;30894;51.740;19.498;2023-12-29T08:21:53;4.30;99.90
45137;DHT22;30894;51.740;19.498;2023-12-29T08:24:20;3.90;99.90
45137;DHT22;30894;51.740;19.498;2023-12-29T08:26:47;3.90;99.90
45137;DHT22;30894;51.740;19.498;2023-12-29T08:29:14;3.90;99.90
45137;DHT22;30894;51.740;19.498;2023-12-29T08:31:42;4.20;99.90
45137;DHT22;30894;51.740;19.498;2023-12-29T08:34:09;4.00;99.90
45137;DHT22;30894;51.740;19.498;2023-12-29T08:36:36;4.00;99.90
45137;DHT22;30894;51.740;19.498;2023-12-29T08:39:04;4.10;99.90
45137;DHT22;30894;51.740;19.498;2023-12-29T08:41:31;4.20;99.90
45137;DHT22;30894;51.740;19.498;2023-12-29T08:44:06;4.20;99.90
45137;DHT22;30894;51.740;19.498;2023-12-29T08:46:32;4.40;99.90
45137;DHT22;30894;51.740;19.498;2023-12-29T08:48:58;4.40;99.90
45137;DHT22;30894;51.740;19.498;2023-12-29T08:51:27;4.60;99.90
45137;DHT22;30894;51.740;19.498;2023-12-29T08:53:54;4.80;99.90
45137;DHT22;30894;51.740;19.498;2023-12-29T08:56:21;4.80;99.90
45137;DHT22;30894;51.740;19.498;2023-12-29T08:58:48;5.10;99.90
45137;DHT22;30894;51.740;19.498;2023-12-29T09:01:14;4.90;99.90
45137;DHT22;30894;51.740;19.498;2023-12-29T09:03:43;5.10;99.90
45137;DHT22;30894;51.740;19.498;2023-12-29T09:06:12;5.30;99.90
45137;DHT22;30894;51.740;19.498;2023-12-29T09:08:40;5.40;99.90
45137;DHT22;30894;51.740;19.498;2023-12-29T09:11:07;5.70;99.90
45137;DHT22;30894;51.740;19.498;2023-12-29T09:13:34;6.00;99.90
45137;DHT22;30894;51.740;19.498;2023-12-29T09:16:02;6.30;99.90
45137;DHT22;30894;51.740;19.498;2023-12-29T09:18:28;6.40;99.90
45137;DHT22;30894;51.740;19.498;2023-12-29T09:20:55;6.70;99.90
45137;DHT22;30894;51.740;19.498;2023-12-29T09:23:21;6.80;99.90
45137;DHT22;30894;51.740;19.498;2023-12-29T09:25:48;6.90;99.90
45137;DHT22;30894;51.740;19.498;2023-12-29T09:28:17;6.90;99.90
45137;DHT22;30894;51.740;19.498;2023-12-29T09:30:46;6.80;99.90
45137;DHT22;30894;51.740;19.498;2023-12-29T09:33:17;6.80;99.90
45137;DHT22;30894;51.740;19.498;2023-12-29T09:35:44;6.80;99.90
45137;DHT22;30894;51.740;19.498;2023-12-29T09:38:18;6.80;99.90
45137;DHT22;30894;51.740;19.498;2023-12-29T09:41:08;6.90;99.90
45137;DHT22;30894;51.740;19.498;2023-12-29T09:43:49;6.90;99.90
45137;DHT22;30894;51.740;19.498;2023-12-29T09:46:18;6.90;99.90
45137;DHT22;30894;51.740;19.498;2023-12-29T09:48:48;7.20;99.90
45137;DHT22;30894;51.740;19.498;2023-12-29T09:51:27;7.00;99.90
45137;DHT22;30894;51.740;19.498;2023-12-29T09:53:55;6.90;99.90
45137;DHT22;30894;51.740;19.498;2023-12-29T09:56:25;7.10;99.90
45137;DHT22;30894;51.740;19.498;2023-12-29T09:58:56;7.60;99.90
45137;DHT22;30894;51.740;19.498;2023-12-29T10:01:27;7.20;99.90
45137;DHT22;30894;51.740;19.498;2023-12-29T10:03:57;7.30;99.90
45137;DHT22;30894;51.740;19.498;2023-12-29T10:06:24;7.40;99.90
45137;DHT22;30894;51.740;19.498;2023-12-29T10:08:58;7.50;99.90
45137;DHT22;30894;51.740;19.498;2023-12-29T10:11:35;7.60;99.90
45137;DHT22;30894;51.740;19.498;2023-12-29T10:14:20;8.00;99.90
45137;DHT22;30894;51.740;19.498;2023-12-29T10:17:43;8.20;99.90
45137;DHT22;30894;51.740;19.498;2023-12-29T10:23:14;8.10;99.90
45137;DHT22;30894;51.740;19.498;2023-12-29T10:26:22;8.20;99.90
45137;DHT22;30894;51.740;19.498;2023-12-29T10:28:56;8.50;99.90
45137;DHT22;30894;51.740;19.498;2023-12-29T10:31:29;8.20;99.90
45137;DHT22;30894;51.740;19.498;2023-12-29T10:34:24;8.40;99.90
45137;DHT22;30894;51.740;19.498;2023-12-29T10:37:03;8.80;99.90
45137;DHT22;30894;51.740;19.498;2023-12-29T10:39:56;9.10;99.90
45137;DHT22;30894;51.740;19.498;2023-12-29T10:42:24;9.30;99.90
45137;DHT22;30894;51.740;19.498;2023-12-29T10:45:06;9.30;99.90
45137;DHT22;30894;51.740;19.498;2023-12-29T10:47:36;9.30;99.90
45137;DHT22;30894;51.740;19.498;2023-12-29T10:50:09;9.50;99.90
45137;DHT22;30894;51.740;19.498;2023-12-29T10:52:39;9.50;99.90
45137;DHT22;30894;51.740;19.498;2023-12-29T10:55:31;10.20;99.90
45137;DHT22;30894;51.740;19.498;2023-12-29T10:58:25;9.70;99.90
45137;DHT22;30894;51.740;19.498;2023-12-29T11:01:14;9.50;99.90
45137;DHT22;30894;51.740;19.498;2023-12-29T11:04:03;9.90;99.90
45137;DHT22;30894;51.740;19.498;2023-12-29T11:06:50;9.70;99.90
45137;DHT22;30894;51.740;19.498;2023-12-29T11:09:33;10.00;99.90
45137;DHT22;30894;51.740;19.498;2023-12-29T11:12:05;10.40;99.90
45137;DHT22;30894;51.740;19.498;2023-12-29T11:14:48;10.50;99.90
45137;DHT22;30894;51.740;19.498;2023-12-29T11:17:26;11.00;99.90
45137;DHT22;30894;51.740;19.498;2023-12-29T11:20:16;11.30;99.90
45137;DHT22;30894;51.740;19.498;2023-12-29T11:23:06;11.70;99.90
45137;DHT22;30894;51.740;19.498;2023-12-29T11:26:03;12.20;99.90
45137;DHT22;30894;51.740;19.498;2023-12-29T11:28:31;12.30;99.10
45137;DHT22;30894;51.740;19.498;2023-12-29T11:31:31;12.60;98.20
45137;DHT22;30894;51.740;19.498;2023-12-29T11:34:42;13.00;97.90
45137;DHT22;30894;51.740;19.498;2023-12-29T11:37:47;13.00;97.70
45137;DHT22;30894;51.740;19.498;2023-12-29T11:43:59;13.30;96.60
45137;DHT22;30894;51.740;19.498;2023-12-29T11:46:40;13.80;97.50
45137;DHT22;30894;51.740;19.498;2023-12-29T11:49:15;12.90;97.60
45137;DHT22;30894;51.740;19.498;2023-12-29T11:51:51;13.00;97.40
45137;DHT22;30894;51.740;19.498;2023-12-29T11:54:23;12.70;96.70
45137;DHT22;30894;51.740;19.498;2023-12-29T11:56:55;13.10;96.90
45137;DHT22;30894;51.740;19.498;2023-12-29T11:59:25;13.10;96.40
45137;DHT22;30894;51.740;19.498;2023-12-29T12:02:00;13.20;96.70
45137;DHT22;30894;51.740;19.498;2023-12-29T12:04:42;12.90;96.60
45137;DHT22;30894;51.740;19.498;2023-12-29T12:12:54;12.50;96.90
45137;DHT22;30894;51.740;19.498;2023-12-29T12:15:33;12.50;96.90
45137;DHT22;30894;51.740;19.498;2023-12-29T12:18:04;12.50;96.90
45137;DHT22;30894;51.740;19.498;2023-12-29T12:20:37;12.50;96.70
45137;DHT22;30894;51.740;19.498;2023-12-29T12:23:20;12.00;96.70
45137;DHT22;30894;51.740;19.498;2023-12-29T12:26:03;12.10;96.90
45137;DHT22;30894;51.740;19.498;2023-12-29T12:28:32;12.00;97.30
45137;DHT22;30894;51.740;19.498;2023-12-29T12:31:07;11.90;97.40
45137;DHT22;30894;51.740;19.498;2023-12-29T12:34:08;11.90;97.40
45137;DHT22;30894;51.740;19.498;2023-12-29T12:36:53;11.80;97.30
45137;DHT22;30894;51.740;19.498;2023-12-29T12:39:23;11.70;97.40
45137;DHT22;30894;51.740;19.498;2023-12-29T12:41:52;11.70;97.70
45137;DHT22;30894;51.740;19.498;2023-12-29T12:44:26;11.60;97.70
45137;DHT22;30894;51.740;19.498;2023-12-29T12:46:57;11.50;97.80
45137;DHT22;30894;51.740;19.498;2023-12-29T12:49:29;11.80;98.00
45137;DHT22;30894;51.740;19.498;2023-12-29T12:52:00;11.50;97.90
45137;DHT22;30894;51.740;19.498;2023-12-29T12:54:28;11.50;97.80
45137;DHT22;30894;51.740;19.498;2023-12-29T12:56:55;11.20;97.80
45137;DHT22;30894;51.740;19.498;2023-12-29T12:59:24;11.40;97.80
45137;DHT22;30894;51.740;19.498;2023-12-29T13:01:55;11.20;98.10
45137;DHT22;30894;51.740;19.498;2023-12-29T13:04:34;11.00;98.30
45137;DHT22;30894;51.740;19.498;2023-12-29T13:07:02;10.70;98.70
45137;DHT22;30894;51.740;19.498;2023-12-29T13:09:29;10.70;99.00
45137;DHT22;30894;51.740;19.498;2023-12-29T13:12:13;10.90;99.60
45137;DHT22;30894;51.740;19.498;2023-12-29T13:15:07;10.40;99.40
45137;DHT22;30894;51.740;19.498;2023-12-29T13:17:50;9.60;99.60
45137;DHT22;30894;51.740;19.498;2023-12-29T13:20:25;10.00;99.90
45137;DHT22;30894;51.740;19.498;2023-12-29T13:22:58;9.80;99.90
45137;DHT22;30894;51.740;19.498;2023-12-29T13:25:28;9.70;99.90
45137;DHT22;30894;51.740;19.498;2023-12-29T13:27:57;9.80;99.90
45137;DHT22;30894;51.740;19.498;2023-12-29T13:30:27;9.40;99.90
45137;DHT22;30894;51.740;19.498;2023-12-29T13:32:54;9.30;99.90
45137;DHT22;30894;51.740;19.498;2023-12-29T13:35:45;9.20;99.90
45137;DHT22;30894;51.740;19.498;2023-12-29T13:38:28;9.20;99.90
45137;DHT22;30894;51.740;19.498;2023-12-29T13:41:09;9.20;99.90
45137;DHT22;30894;51.740;19.498;2023-12-29T13:43:40;9.10;99.90
45137;DHT22;30894;51.740;19.498;2023-12-29T13:46:12;9.00;99.90
45137;DHT22;30894;51.740;19.498;2023-12-29T13:48:45;8.90;99.90
45137;DHT22;30894;51.740;19.498;2023-12-29T13:51:25;8.80;99.90
45137;DHT22;30894;51.740;19.498;2023-12-29T13:54:00;8.70;99.90
45137;DHT22;30894;51.740;19.498;2023-12-29T13:56:28;8.70;99.90
45137;DHT22;30894;51.740;19.498;2023-12-29T13:59:00;8.60;99.90
45137;DHT22;30894;51.740;19.498;2023-12-29T14:01:37;8.60;99.90
45137;DHT22;30894;51.740;19.498;2023-12-29T14:04:07;8.30;99.90
45137;DHT22;30894;51.740;19.498;2023-12-29T14:07:00;8.50;99.90
45137;DHT22;30894;51.740;19.498;2023-12-29T14:09:36;8.10;99.90
45137;DHT22;30894;51.740;19.498;2023-12-29T14:12:04;8.00;99.90
45137;DHT22;30894;51.740;19.498;2023-12-29T14:15:07;8.00;99.90
45137;DHT22;30894;51.740;19.498;2023-12-29T14:17:40;7.90;99.90
45137;DHT22;30894;51.740;19.498;2023-12-29T14:20:07;8.20;99.90
45137;DHT22;30894;51.740;19.498;2023-12-29T14:22:37;7.70;99.90
45137;DHT22;30894;51.740;19.498;2023-12-29T14:25:05;7.70;99.90
45137;DHT22;30894;51.740;19.498;2023-12-29T14:27:36;7.60;99.90
45137;DHT22;30894;51.740;19.498;2023-12-29T14:30:17;7.60;99.90
45137;DHT22;30894;51.740;19.498;2023-12-29T14:32:45;7.80;99.90
45137;DHT22;30894;51.740;19.498;2023-12-29T14:35:18;7.40;99.90
45137;DHT22;30894;51.740;19.498;2023-12-29T14:37:45;7.30;99.90
45137;DHT22;30894;51.740;19.498;2023-12-29T14:40:12;7.20;99.90
45137;DHT22;30894;51.740;19.498;2023-12-29T14:42:43;7.10;99.90
45137;DHT22;30894;51.740;19.498;2023-12-29T14:45:25;7.10;99.90
45137;DHT22;30894;51.740;19.498;2023-12-29T14:47:51;7.10;99.90
45137;DHT22;30894;51.740;19.498;2023-12-29T14:50:18;7.40;99.90
45137;DHT22;30894;51.740;19.498;2023-12-29T14:52:44;7.40;99.90
45137;DHT22;30894;51.740;19.498;2023-12-29T14:55:14;6.90;99.90
45137;DHT22;30894;51.740;19.498;2023-12-29T14:57:51;6.90;99.90
45137;DHT22;30894;51.740;19.498;2023-12-29T15:00:18;6.80;99.90
45137;DHT22;30894;51.740;19.498;2023-12-29T15:02:56;6.10;99.90
45137;DHT22;30894;51.740;19.498;2023-12-29T15:05:23;6.80;99.90
45137;DHT22;30894;51.740;19.498;2023-12-29T15:07:52;6.70;99.90
45137;DHT22;30894;51.740;19.498;2023-12-29T15:10:20;6.70;99.90
45137;DHT22;30894;51.740;19.498;2023-12-29T15:12:46;6.70;99.90
45137;DHT22;30894;51.740;19.498;2023-12-29T15:15:14;6.80;99.90
45137;DHT22;30894;51.740;19.498;2023-12-29T15:17:43;7.00;99.90
45137;DHT22;30894;51.740;19.498;2023-12-29T15:20:10;6.60;99.90
45137;DHT22;30894;51.740;19.498;2023-12-29T15:22:40;6.60;99.90
45137;DHT22;30894;51.740;19.498;2023-12-29T15:25:12;6.60;99.90
45137;DHT22;30894;51.740;19.498;2023-12-29T15:27:39;6.60;99.90
45137;DHT22;30894;51.740;19.498;2023-12-29T15:30:06;6.60;99.90
45137;DHT22;30894;51.740;19.498;2023-12-29T15:32:34;6.60;99.90
45137;DHT22;30894;51.740;19.498;2023-12-29T15:35:05;6.90;99.90
45137;DHT22;30894;51.740;19.498;2023-12-29T15:37:36;6.60;99.90
45137;DHT22;30894;51.740;19.498;2023-12-29T15:40:04;6.90;99.90
45137;DHT22;30894;51.740;19.498;2023-12-29T15:42:33;6.60;99.90
45137;DHT22;30894;51.740;19.498;2023-12-29T15:45:06;6.60;99.90
45137;DHT22;30894;51.740;19.498;2023-12-29T15:47:48;6.60;99.90
45137;DHT22;30894;51.740;19.498;2023-12-29T15:50:25;6.60;99.90
45137;DHT22;30894;51.740;19.498;2023-12-29T15:53:04;6.60;99.90
45137;DHT22;30894;51.740;19.498;2023-12-29T15:55:46;6.70;99.90
45137;DHT22;30894;51.740;19.498;2023-12-29T15:58:19;6.60;99.90
45137;DHT22;30894;51.740;19.498;2023-12-29T16:00:50;6.50;99.90
45137;DHT22;30894;51.740;19.498;2023-12-29T16:03:17;6.50;99.90
45137;DHT22;30894;51.740;19.498;2023-12-29T16:06:00;6.60;99.90
45137;DHT22;30894;51.740;19.498;2023-12-29T16:08:29;6.60;99.90